createdAt,value
2019-05-03T00:02:13.737Z,97461.44
2019-05-03T00:04:48.206Z,97462.74
2019-05-03T00:07:19.859Z,97462.23
2019-05-03T00:09:52.005Z,97463.95
2019-05-03T00:12:23.745Z,97457.67
2019-05-03T00:14:59.860Z,97457.75
2019-05-03T00:17:32.463Z,97460.56
2019-05-03T00:20:04.564Z,97457.50
2019-05-03T00:22:36.181Z,97456.17
2019-05-03T00:25:09.162Z,97457.08
2019-05-03T00:27:42.620Z,97458.66
2019-05-03T00:30:14.278Z,97460.16
2019-05-03T00:32:45.859Z,97461.02
2019-05-03T00:35:22.701Z,97457.50
2019-05-03T00:37:55.956Z,97455.56
2019-05-03T00:40:29.055Z,97461.02
2019-05-03T00:43:02.315Z,97463.02
2019-05-03T00:45:34.126Z,97461.30
2019-05-03T00:48:05.847Z,97456.55
2019-05-03T00:50:37.439Z,97453.67
2019-05-03T00:53:09.022Z,97456.51
2019-05-03T00:55:42.007Z,97449.83
2019-05-03T00:58:13.663Z,97450.51
2019-05-03T01:00:45.271Z,97452.77
2019-05-03T01:03:16.911Z,97449.83
2019-05-03T01:05:48.516Z,97449.34
2019-05-03T01:08:21.895Z,97451.33
2019-05-03T01:10:53.382Z,97449.69
2019-05-03T01:13:24.985Z,97450.73
2019-05-03T01:16:08.624Z,97445.95
2019-05-03T01:18:41.752Z,97447.62
2019-05-03T01:21:13.637Z,97448.11
2019-05-03T01:23:45.252Z,97447.75
2019-05-03T01:26:17.026Z,97454.30
2019-05-03T01:28:48.767Z,97450.23
2019-05-03T01:31:22.528Z,97440.39
2019-05-03T01:33:53.504Z,97449.20
2019-05-03T01:36:25.077Z,97452.17
2019-05-03T01:38:56.643Z,97454.08
2019-05-03T01:41:28.210Z,97450.51
2019-05-03T01:44:01.828Z,97454.08
2019-05-03T01:46:33.128Z,97448.66
2019-05-03T01:49:17.464Z,97452.72
2019-05-03T01:52:21.802Z,97451.05
2019-05-03T01:54:53.330Z,97446.17
2019-05-03T01:57:24.936Z,97449.83
2019-05-03T01:59:56.554Z,97448.52
2019-05-03T02:02:35.331Z,97445.68
2019-05-03T02:05:42.871Z,97447.48
2019-05-03T02:08:14.793Z,97447.48
2019-05-03T02:10:48.105Z,97446.77
2019-05-03T02:13:19.712Z,97449.25
2019-05-03T02:15:52.767Z,97450.91
2019-05-03T02:18:24.611Z,97453.53
2019-05-03T02:20:56.321Z,97450.91
2019-05-03T02:23:27.918Z,97456.42
2019-05-03T02:25:59.513Z,97453.31
2019-05-03T02:28:32.656Z,97458.22
2019-05-03T02:31:04.493Z,97455.61
2019-05-03T02:33:36.117Z,97457.73
2019-05-03T02:36:07.653Z,97458.49
2019-05-03T02:38:39.258Z,97457.64
2019-05-03T02:41:13.410Z,97457.45
2019-05-03T02:43:48.715Z,97462.23
2019-05-03T02:46:45.448Z,97457.86
2019-05-03T02:49:35.304Z,97461.91
2019-05-03T02:52:07.034Z,97469.81
2019-05-03T02:54:38.636Z,97468.64
2019-05-03T02:57:11.294Z,97468.64
2019-05-03T02:59:45.198Z,97464.66
2019-05-03T03:02:16.500Z,97472.20
2019-05-03T03:04:48.067Z,97469.27
2019-05-03T03:07:20.609Z,97471.03
2019-05-03T03:09:55.651Z,97468.71
2019-05-03T03:12:28.716Z,97470.57
2019-05-03T03:15:02.719Z,97472.70
2019-05-03T03:17:36.692Z,97471.88
2019-05-03T03:20:10.831Z,97471.39
2019-05-03T03:22:45.776Z,97471.61
2019-05-03T03:25:25.826Z,97479.79
2019-05-03T03:28:02.257Z,97476.63
2019-05-03T03:31:31.112Z,97480.36
2019-05-03T03:34:08.436Z,97480.63
2019-05-03T03:37:00.736Z,97480.63
2019-05-03T03:39:25.989Z,97476.92
2019-05-03T03:41:58.533Z,97482.06
2019-05-03T03:44:30.408Z,97487.30
2019-05-03T03:47:05.110Z,97483.02
2019-05-03T03:49:38.650Z,97488.25
2019-05-03T03:52:12.037Z,97487.30
2019-05-03T03:54:45.708Z,97492.53
2019-05-03T03:57:19.201Z,97489.83
2019-05-03T03:59:51.159Z,97489.27
2019-05-03T04:02:26.205Z,97492.02
2019-05-03T04:04:56.826Z,97494.14
2019-05-03T04:07:28.641Z,97500.81
2019-05-03T04:10:00.516Z,97499.25
2019-05-03T04:12:32.125Z,97507.03
2019-05-03T04:15:19.834Z,97501.30
2019-05-03T04:18:19.154Z,97502.39
2019-05-03T04:20:50.753Z,97504.05
2019-05-03T04:23:22.343Z,97510.23
2019-05-03T04:25:56.626Z,97515.14
2019-05-03T04:28:27.728Z,97513.34
2019-05-03T04:30:59.299Z,97511.22
2019-05-03T04:33:30.895Z,97518.08
2019-05-03T04:36:05.455Z,97517.36
2019-05-03T04:38:36.828Z,97518.41
2019-05-03T04:41:08.434Z,97518.87
2019-05-03T04:43:40.020Z,97516.48
2019-05-03T04:46:18.365Z,97517.39
2019-05-03T04:48:49.964Z,97519.06
2019-05-03T04:51:21.558Z,97518.08
2019-05-03T04:54:16.117Z,97520.01
2019-05-03T04:56:46.647Z,97519.39
2019-05-03T04:59:19.298Z,97534.27
2019-05-03T05:01:50.881Z,97534.14
2019-05-03T05:04:22.470Z,97536.81
2019-05-03T05:06:55.451Z,97545.72
2019-05-03T05:09:27.381Z,97544.90
2019-05-03T05:11:58.974Z,97546.34
2019-05-03T05:14:30.579Z,97548.40
2019-05-03T05:17:02.183Z,97550.72
2019-05-03T05:19:48.345Z,97548.53
2019-05-03T05:22:25.257Z,97553.34
2019-05-03T05:25:01.082Z,97557.13
2019-05-03T05:27:57.226Z,97557.98
2019-05-03T05:30:29.625Z,97563.09
2019-05-03T05:33:01.229Z,97562.50
2019-05-03T05:35:32.808Z,97562.86
2019-05-03T05:38:04.763Z,97570.97
2019-05-03T05:40:36.277Z,97568.52
2019-05-03T05:43:07.864Z,97566.75
2019-05-03T05:45:39.463Z,97573.91
2019-05-03T05:48:12.737Z,97579.84
2019-05-03T05:50:45.104Z,97576.43
2019-05-03T05:53:16.689Z,97587.16
2019-05-03T05:56:15.955Z,97596.57
2019-05-03T05:59:11.033Z,97601.73
2019-05-03T06:01:48.462Z,97601.64
2019-05-03T06:04:20.107Z,97598.47
2019-05-03T06:07:09.195Z,97611.73
2019-05-03T06:09:47.804Z,97613.30
2019-05-03T06:12:38.251Z,97623.33
2019-05-03T06:15:16.676Z,97618.73
2019-05-03T06:17:55.354Z,97619.80
2019-05-03T06:20:39.939Z,97630.63
2019-05-03T06:23:21.441Z,97622.17
2019-05-03T06:25:54.478Z,97619.09
2019-05-03T06:28:32.552Z,97634.36
2019-05-03T06:31:35.452Z,97628.99
2019-05-03T06:34:07.051Z,97628.98
2019-05-03T06:36:39.923Z,97630.47
2019-05-03T06:39:11.511Z,97630.55
2019-05-03T06:41:44.581Z,97633.03
2019-05-03T06:44:35.427Z,97641.94
2019-05-03T06:47:10.435Z,97639.55
2019-05-03T06:49:44.979Z,97642.97
2019-05-03T06:52:14.704Z,97641.05
2019-05-03T06:54:46.499Z,97647.33
2019-05-03T06:57:19.377Z,97646.81
2019-05-03T06:59:58.802Z,97655.77
2019-05-03T07:02:44.648Z,97660.95
2019-05-03T07:05:44.475Z,97659.52
2019-05-03T07:08:35.013Z,97663.93
2019-05-03T07:11:07.088Z,97667.98
2019-05-03T07:13:38.739Z,97670.47
2019-05-03T07:16:10.317Z,97679.40
2019-05-03T07:18:41.926Z,97672.98
2019-05-03T07:21:15.268Z,97677.30
2019-05-03T07:23:46.985Z,97676.73
2019-05-03T07:26:18.569Z,97680.34
2019-05-03T07:28:50.287Z,97678.18
2019-05-03T07:31:22.037Z,97687.34
2019-05-03T07:33:55.089Z,97682.95
2019-05-03T07:36:28.343Z,97683.63
2019-05-03T07:39:00.151Z,97690.36
2019-05-03T07:41:35.406Z,97693.16
2019-05-03T07:44:06.654Z,97697.78
2019-05-03T07:46:38.226Z,97693.58
2019-05-03T07:49:09.819Z,97694.80
2019-05-03T07:51:41.410Z,97705.98
2019-05-03T07:54:13.015Z,97699.47
2019-05-03T07:56:54.803Z,97699.73
2019-05-03T07:59:26.047Z,97698.75
2019-05-03T08:01:58.863Z,97702.84
2019-05-03T08:04:30.485Z,97706.30
2019-05-03T08:07:02.103Z,97705.18
2019-05-03T08:09:35.041Z,97701.63
2019-05-03T08:12:06.768Z,97705.66
2019-05-03T08:14:38.421Z,97712.53
2019-05-03T08:17:10.030Z,97705.70
2019-05-03T08:19:41.601Z,97708.23
2019-05-03T08:22:14.890Z,97701.03
2019-05-03T08:24:46.568Z,97699.92
2019-05-03T08:27:18.164Z,97696.52
2019-05-03T08:29:49.767Z,97695.86
2019-05-03T08:32:35.386Z,97695.52
2019-05-03T08:35:33.045Z,97698.47
2019-05-03T08:38:04.989Z,97697.86
2019-05-03T08:40:45.385Z,97690.72
2019-05-03T08:43:16.957Z,97693.64
2019-05-03T08:45:48.536Z,97688.33
2019-05-03T08:48:20.159Z,97695.34
2019-05-03T08:50:52.873Z,97691.75
2019-05-03T08:53:25.640Z,97692.52
2019-05-03T08:55:58.412Z,97690.18
2019-05-03T08:58:30.117Z,97686.57
2019-05-03T09:01:01.718Z,97690.44
2019-05-03T09:03:36.284Z,97687.27
2019-05-03T09:06:06.897Z,97690.28
2019-05-03T09:08:38.506Z,97693.42
2019-05-03T09:11:15.384Z,97686.63
2019-05-03T09:13:58.534Z,97694.09
2019-05-03T09:16:30.085Z,97687.30
2019-05-03T09:19:01.713Z,97685.81
2019-05-03T09:21:34.731Z,97682.07
2019-05-03T09:24:06.554Z,97680.33
2019-05-03T09:26:38.157Z,97687.81
2019-05-03T09:29:09.741Z,97681.88
2019-05-03T09:31:41.450Z,97684.06
2019-05-03T09:34:14.780Z,97685.47
2019-05-03T09:36:46.504Z,97682.98
2019-05-03T09:39:18.069Z,97680.88
2019-05-03T09:41:49.665Z,97680.95
2019-05-03T09:44:21.246Z,97687.27
2019-05-03T09:46:54.992Z,97682.81
2019-05-03T09:49:26.656Z,97682.59
2019-05-03T09:51:58.520Z,97685.63
2019-05-03T09:54:36.008Z,97684.29
2019-05-03T09:57:07.686Z,97679.37
2019-05-03T09:59:39.259Z,97679.34
2019-05-03T10:02:10.872Z,97672.61
2019-05-03T10:04:44.497Z,97676.32
2019-05-03T10:07:15.782Z,97680.00
2019-05-03T10:09:47.424Z,97676.41
2019-05-03T10:12:25.285Z,97673.47
2019-05-03T10:14:56.188Z,97670.00
2019-05-03T10:17:52.655Z,97677.55
2019-05-03T10:20:26.195Z,97672.48
2019-05-03T10:23:00.391Z,97677.09
2019-05-03T10:25:31.995Z,97672.70
2019-05-03T10:28:05.733Z,97668.13
2019-05-03T10:30:37.513Z,97679.53
2019-05-03T10:33:15.536Z,97663.32
2019-05-03T10:35:47.418Z,97675.13
2019-05-03T10:38:19.181Z,97674.42
2019-05-03T10:40:50.787Z,97669.52
2019-05-03T10:43:24.660Z,97663.32
2019-05-03T10:45:55.857Z,97659.50
2019-05-03T10:48:28.673Z,97659.63
2019-05-03T10:51:00.267Z,97652.14
2019-05-03T10:53:36.696Z,97642.82
2019-05-03T10:56:23.158Z,97652.64
2019-05-03T10:58:55.416Z,97643.63
2019-05-03T11:01:37.435Z,97645.55
2019-05-03T11:04:09.115Z,97652.95
2019-05-03T11:06:40.691Z,97646.73
2019-05-03T11:09:15.067Z,97648.34
2019-05-03T11:11:45.768Z,97644.29
2019-05-03T11:14:17.302Z,97652.38
2019-05-03T11:16:48.881Z,97644.48
2019-05-03T11:19:20.489Z,97649.30
2019-05-03T11:21:52.066Z,97656.37
2019-05-03T11:24:27.143Z,97646.09
2019-05-03T11:27:00.189Z,97642.71
2019-05-03T11:29:31.863Z,97643.20
2019-05-03T11:32:28.715Z,97646.67
2019-05-03T11:35:12.513Z,97641.52
2019-05-03T11:37:54.223Z,97636.43
2019-05-03T11:40:25.850Z,97638.90
2019-05-03T11:42:59.639Z,97631.98
2019-05-03T11:45:31.219Z,97629.16
2019-05-03T11:48:02.854Z,97627.69
2019-05-03T11:50:34.807Z,97627.05
2019-05-03T11:53:06.681Z,97625.89
2019-05-03T11:55:39.559Z,97620.11
2019-05-03T11:58:21.276Z,97627.52
2019-05-03T12:01:19.957Z,97623.91
2019-05-03T12:04:04.969Z,97629.66
2019-05-03T12:06:36.976Z,97623.71
2019-05-03T12:09:09.235Z,97624.02
2019-05-03T12:11:41.665Z,97621.75
2019-05-03T12:14:15.416Z,97616.78
2019-05-03T12:17:14.594Z,97617.30
2019-05-03T12:19:31.472Z,97619.09
2019-05-03T12:22:03.035Z,97616.95
2019-05-03T12:24:36.619Z,97618.77
2019-05-03T12:27:08.620Z,97612.85
2019-05-03T12:29:40.225Z,97608.70
2019-05-03T12:32:12.095Z,97604.42
2019-05-03T12:34:43.787Z,97606.56
2019-05-03T12:37:15.568Z,97603.25
2019-05-03T12:39:47.223Z,97598.96
2019-05-03T12:42:19.002Z,97601.61
2019-05-03T12:44:51.827Z,97604.58
2019-05-03T12:47:25.189Z,97588.62
2019-05-03T12:49:56.890Z,97601.80
2019-05-03T12:52:29.094Z,97593.73
2019-05-03T12:55:01.095Z,97587.06
2019-05-03T12:57:34.479Z,97594.67
2019-05-03T13:00:41.716Z,97590.76
2019-05-03T13:03:32.234Z,97585.18
2019-05-03T13:06:07.172Z,97579.59
2019-05-03T13:08:40.962Z,97574.63
2019-05-03T13:11:12.793Z,97572.51
2019-05-03T13:13:45.234Z,97566.77
2019-05-03T13:16:20.052Z,97559.36
2019-05-03T13:18:51.654Z,97566.12
2019-05-03T13:21:25.112Z,97559.86
2019-05-03T13:23:56.540Z,97558.67
2019-05-03T13:26:28.159Z,97554.72
2019-05-03T13:28:59.976Z,97549.95
2019-05-03T13:31:31.602Z,97544.81
2019-05-03T13:34:05.468Z,97544.83
2019-05-03T13:36:36.769Z,97539.56
2019-05-03T13:39:14.391Z,97542.52
2019-05-03T13:41:45.589Z,97537.23
2019-05-03T13:44:17.504Z,97530.31
2019-05-03T13:46:49.115Z,97529.16
2019-05-03T13:49:20.714Z,97520.53
2019-05-03T13:51:52.321Z,97527.13
2019-05-03T13:54:25.537Z,97519.38
2019-05-03T13:56:57.550Z,97523.66
2019-05-03T13:59:29.117Z,97522.06
2019-05-03T14:02:12.556Z,97519.09
2019-05-03T14:04:42.806Z,97517.44
2019-05-03T14:07:07.358Z,97516.77
2019-05-03T14:09:38.991Z,97516.12
2019-05-03T14:12:10.546Z,97518.76
2019-05-03T14:14:55.836Z,97520.86
2019-05-03T14:17:29.335Z,97517.38
2019-05-03T14:20:09.364Z,97517.35
2019-05-03T14:22:42.970Z,97524.16
2019-05-03T14:25:15.149Z,97512.60
2019-05-03T14:27:48.001Z,97522.69
2019-05-03T14:30:20.716Z,97517.22
2019-05-03T14:32:52.307Z,97520.84
2019-05-03T14:35:25.081Z,97510.31
2019-05-03T14:37:56.707Z,97510.63
2019-05-03T14:40:28.300Z,97515.06
2019-05-03T14:42:59.880Z,97513.25
2019-05-03T14:45:31.488Z,97519.36
2019-05-03T14:48:03.204Z,97522.00
2019-05-03T14:50:36.464Z,97519.36
2019-05-03T14:53:08.418Z,97519.37
2019-05-03T14:55:45.380Z,97521.24
2019-05-03T14:58:35.312Z,97517.76
2019-05-03T15:01:16.795Z,97515.59
2019-05-03T15:03:48.422Z,97514.42
2019-05-03T15:06:20.033Z,97524.16
2019-05-03T15:08:51.802Z,97526.61
2019-05-03T15:11:23.392Z,97525.45
2019-05-03T15:13:55.110Z,97525.80
2019-05-03T15:16:26.693Z,97526.47
2019-05-03T15:18:58.397Z,97524.01
2019-05-03T15:21:30.020Z,97522.00
2019-05-03T15:24:02.602Z,97520.52
2019-05-03T15:26:35.650Z,97520.50
2019-05-03T15:29:07.378Z,97522.59
2019-05-03T15:31:39.081Z,97526.02
2019-05-03T15:34:10.671Z,97526.31
2019-05-03T15:36:42.260Z,97529.69
2019-05-03T15:39:15.391Z,97530.35
2019-05-03T15:41:47.052Z,97522.10
2019-05-03T15:44:37.513Z,97524.73
2019-05-03T15:47:16.973Z,97528.53
2019-05-03T15:49:48.571Z,97532.23
2019-05-03T15:52:20.169Z,97522.19
2019-05-03T15:54:51.807Z,97531.56
2019-05-03T15:57:25.164Z,97525.39
2019-05-03T15:59:56.698Z,97527.69
2019-05-03T16:02:28.347Z,97534.19
2019-05-03T16:04:59.931Z,97533.30
2019-05-03T16:07:31.551Z,97532.11
2019-05-03T16:10:04.667Z,97535.82
2019-05-03T16:12:36.530Z,97530.48
2019-05-03T16:15:09.657Z,97538.52
2019-05-03T16:17:41.229Z,97535.54
2019-05-03T16:20:14.438Z,97530.73
2019-05-03T16:22:46.671Z,97535.99
2019-05-03T16:25:18.514Z,97535.88
2019-05-03T16:27:55.578Z,97543.20
2019-05-03T16:30:51.904Z,97540.61
2019-05-03T16:33:27.669Z,97540.69
2019-05-03T16:35:56.806Z,97541.38
2019-05-03T16:38:28.382Z,97541.28
2019-05-03T16:41:00.137Z,97543.78
2019-05-03T16:43:31.745Z,97542.20
2019-05-03T16:46:05.472Z,97542.91
2019-05-03T16:48:36.626Z,97534.20
2019-05-03T16:51:08.344Z,97536.66
2019-05-03T16:53:39.901Z,97534.64
2019-05-03T16:56:11.565Z,97532.36
2019-05-03T16:58:44.715Z,97534.70
2019-05-03T17:01:18.171Z,97532.84
2019-05-03T17:03:54.922Z,97533.42
2019-05-03T17:06:51.700Z,97533.44
2019-05-03T17:09:48.387Z,97536.48
2019-05-03T17:12:25.679Z,97537.68
2019-05-03T17:14:57.935Z,97538.09
2019-05-03T17:17:29.553Z,97536.07
2019-05-03T17:20:01.249Z,97540.57
2019-05-03T17:22:34.517Z,97533.91
2019-05-03T17:25:06.675Z,97534.27
2019-05-03T17:27:38.886Z,97535.23
2019-05-03T17:30:11.097Z,97541.33
2019-05-03T17:32:44.614Z,97538.29
2019-05-03T17:35:16.446Z,97535.87
2019-05-03T17:37:48.070Z,97537.13
2019-05-03T17:40:38.191Z,97537.18
2019-05-03T17:43:27.044Z,97542.94
2019-05-03T17:45:59.537Z,97539.60
2019-05-03T17:48:32.207Z,97534.03
2019-05-03T17:51:04.453Z,97537.13
2019-05-03T17:53:55.202Z,97535.95
2019-05-03T17:56:45.010Z,97539.36
2019-05-03T17:59:24.337Z,97543.59
2019-05-03T18:02:23.777Z,97539.95
2019-05-03T18:05:15.284Z,97535.41
2019-05-03T18:08:04.452Z,97540.22
2019-05-03T18:10:37.719Z,97547.64
2019-05-03T18:13:09.342Z,97536.01
2019-05-03T18:15:42.441Z,97545.98
2019-05-03T18:18:16.833Z,97538.91
2019-05-03T18:20:48.392Z,97540.92
2019-05-03T18:23:20.023Z,97540.67
2019-05-03T18:25:51.658Z,97539.78
2019-05-03T18:28:24.892Z,97543.28
2019-05-03T18:30:57.728Z,97545.86
2019-05-03T18:33:29.340Z,97543.66
2019-05-03T18:36:00.915Z,97551.55
2019-05-03T18:38:39.388Z,97550.92
2019-05-03T18:41:12.973Z,97554.81
2019-05-03T18:44:14.764Z,97552.33
2019-05-03T18:46:50.097Z,97552.73
2019-05-03T18:49:21.699Z,97555.73
2019-05-03T18:51:55.187Z,97549.19
2019-05-03T18:54:26.663Z,97565.98
2019-05-03T18:56:58.436Z,97565.03
2019-05-03T18:59:30.045Z,97566.78
2019-05-03T19:02:01.852Z,97569.47
2019-05-03T19:05:01.534Z,97576.81
2019-05-03T19:08:04.540Z,97571.13
2019-05-03T19:10:46.910Z,97580.09
2019-05-03T19:13:26.460Z,97580.81
2019-05-03T19:15:59.966Z,97587.89
2019-05-03T19:18:35.251Z,97589.27
2019-05-03T19:21:06.991Z,97591.52
2019-05-03T19:23:38.625Z,97586.94
2019-05-03T19:26:10.267Z,97584.94
2019-05-03T19:28:41.882Z,97581.63
2019-05-03T19:31:13.907Z,97587.26
2019-05-03T19:33:45.749Z,97586.95
2019-05-03T19:36:17.481Z,97587.00
2019-05-03T19:38:49.115Z,97585.78
2019-05-03T19:41:21.837Z,97584.78
2019-05-03T19:43:55.100Z,97594.08
2019-05-03T19:46:26.864Z,97588.59
2019-05-03T19:48:58.470Z,97590.16
2019-05-03T19:51:30.105Z,97590.97
2019-05-03T19:54:01.709Z,97591.95
2019-05-03T19:56:35.110Z,97592.77
2019-05-03T19:59:09.430Z,97592.27
2019-05-03T20:01:47.576Z,97595.38
2019-05-03T20:04:35.982Z,97595.20
2019-05-03T20:07:41.664Z,97596.27
2019-05-03T20:10:14.669Z,97591.16
2019-05-03T20:12:46.695Z,97578.96
2019-05-03T20:15:18.425Z,97582.88
2019-05-03T20:17:59.267Z,97578.34
2019-05-03T20:20:23.331Z,97585.70
2019-05-03T20:22:54.973Z,97583.50
2019-05-03T20:25:27.615Z,97578.59
2019-05-03T20:27:59.225Z,97586.55
2019-05-03T20:30:30.851Z,97586.44
2019-05-03T20:33:02.551Z,97582.09
2019-05-03T20:35:35.678Z,97574.31
2019-05-03T20:38:07.614Z,97579.30
2019-05-03T20:40:39.198Z,97583.22
2019-05-03T20:43:44.720Z,97571.45
2019-05-03T20:46:30.247Z,97574.92
2019-05-03T20:49:05.331Z,97576.10
2019-05-03T20:51:36.905Z,97572.06
2019-05-03T20:54:08.735Z,97576.44
2019-05-03T20:56:40.358Z,97570.63
2019-05-03T20:59:11.994Z,97569.70
2019-05-03T21:01:45.361Z,97569.32
2019-05-03T21:04:17.121Z,97566.78
2019-05-03T21:06:48.700Z,97569.89
2019-05-03T21:09:20.314Z,97563.12
2019-05-03T21:11:51.937Z,97559.24
2019-05-03T21:14:24.494Z,97565.53
2019-05-03T21:17:21.334Z,97555.59
2019-05-03T21:20:01.256Z,97556.94
2019-05-03T21:22:51.696Z,97556.95
2019-05-03T21:25:31.948Z,97553.63
2019-05-03T21:28:04.690Z,97558.94
2019-05-03T21:30:36.378Z,97559.30
2019-05-03T21:33:07.969Z,97555.27
2019-05-03T21:35:42.066Z,97558.62
2019-05-03T21:38:13.003Z,97562.55
2019-05-03T21:40:45.293Z,97557.11
2019-05-03T21:43:17.024Z,97554.95
2019-05-03T21:45:54.370Z,97548.05
2019-05-03T21:48:31.808Z,97547.11
2019-05-03T21:51:04.406Z,97549.23
2019-05-03T21:53:38.054Z,97552.34
2019-05-03T21:56:09.446Z,97552.70
2019-05-03T21:58:41.177Z,97550.95
2019-05-03T22:01:15.474Z,97554.75
2019-05-03T22:03:47.188Z,97561.48
2019-05-03T22:06:18.782Z,97554.59
2019-05-03T22:08:50.443Z,97559.00
2019-05-03T22:11:22.021Z,97547.95
2019-05-03T22:13:57.064Z,97549.13
2019-05-03T22:16:52.995Z,97549.73
2019-05-03T22:19:25.111Z,97551.05
2019-05-03T22:22:15.207Z,97552.72
2019-05-03T22:24:50.691Z,97552.47
2019-05-03T22:27:24.508Z,97548.11
2019-05-03T22:29:56.063Z,97550.84
2019-05-03T22:32:27.673Z,97550.02
2019-05-03T22:35:00.392Z,97544.68
2019-05-03T22:37:31.975Z,97536.39
2019-05-03T22:40:05.365Z,97539.37
2019-05-03T22:42:37.078Z,97536.88
2019-05-03T22:45:08.734Z,97542.34
2019-05-03T22:47:40.329Z,97534.76
2019-05-03T22:50:12.056Z,97531.09
2019-05-03T22:52:45.576Z,97529.90
2019-05-03T22:55:17.354Z,97524.31
2019-05-03T22:57:48.923Z,97518.03
2019-05-03T23:00:20.590Z,97518.77
2019-05-03T23:02:52.199Z,97510.72
2019-05-03T23:05:23.799Z,97515.94
2019-05-03T23:07:55.385Z,97507.05
2019-05-03T23:10:27.005Z,97509.78
2019-05-03T23:12:58.616Z,97507.41
2019-05-03T23:15:30.205Z,97508.37
2019-05-03T23:18:01.826Z,97509.80
2019-05-03T23:20:40.857Z,97500.66
2019-05-03T23:23:31.309Z,97494.97
2019-05-03T23:26:04.513Z,97489.52
2019-05-03T23:28:36.184Z,97478.98
2019-05-03T23:31:07.771Z,97481.25
2019-05-03T23:33:39.442Z,97480.40
2019-05-03T23:36:11.155Z,97480.30
2019-05-03T23:38:45.009Z,97471.98
2019-05-03T23:41:16.032Z,97474.38
2019-05-03T23:43:47.617Z,97468.80
2019-05-03T23:46:23.551Z,97464.99
2019-05-03T23:48:56.459Z,97464.64
2019-05-03T23:51:49.722Z,97458.36
2019-05-03T23:54:24.742Z,97458.36
2019-05-03T23:56:56.735Z,97455.87
2019-05-03T23:59:28.355Z,97443.56
